sensor_id;sensor_type;location;lat;lon;timestamp;temperature;humidity
42715;DHT22;28351;51.480;5.706;2024-01-25T00:01:41;8.60;99.90
42715;DHT22;28351;51.480;5.706;2024-01-25T00:04:07;8.60;99.90
42715;DHT22;28351;51.480;5.706;2024-01-25T00:06:32;8.60;99.90
42715;DHT22;28351;51.480;5.706;2024-01-25T00:08:58;8.60;99.90
42715;DHT22;28351;51.480;5.706;2024-01-25T00:11:24;8.60;99.90
42715;DHT22;28351;51.480;5.706;2024-01-25T00:13:49;8.50;99.90
42715;DHT22;28351;51.480;5.706;2024-01-25T00:16:15;8.50;99.90
42715;DHT22;28351;51.480;5.706;2024-01-25T00:18:41;8.40;99.90
42715;DHT22;28351;51.480;5.706;2024-01-25T00:21:06;8.40;99.90
42715;DHT22;28351;51.480;5.706;2024-01-25T00:23:35;8.40;99.90
42715;DHT22;28351;51.480;5.706;2024-01-25T00:26:01;8.30;99.90
42715;DHT22;28351;51.480;5.706;2024-01-25T00:28:26;8.20;99.90
42715;DHT22;28351;51.480;5.706;2024-01-25T00:30:53;8.20;99.90
42715;DHT22;28351;51.480;5.706;2024-01-25T00:33:19;8.10;99.90
42715;DHT22;28351;51.480;5.706;2024-01-25T00:35:44;8.10;99.90
42715;DHT22;28351;51.480;5.706;2024-01-25T00:38:10;8.00;99.90
42715;DHT22;28351;51.480;5.706;2024-01-25T00:40:35;8.00;99.90
42715;DHT22;28351;51.480;5.706;2024-01-25T00:43:01;8.00;99.90
42715;DHT22;28351;51.480;5.706;2024-01-25T00:45:27;8.00;99.90
42715;DHT22;28351;51.480;5.706;2024-01-25T00:47:52;7.90;99.90
42715;DHT22;28351;51.480;5.706;2024-01-25T00:50:18;7.90;99.90
42715;DHT22;28351;51.480;5.706;2024-01-25T00:52:49;7.80;99.90
42715;DHT22;28351;51.480;5.706;2024-01-25T00:55:15;7.70;99.90
42715;DHT22;28351;51.480;5.706;2024-01-25T00:57:41;7.60;99.90
42715;DHT22;28351;51.480;5.706;2024-01-25T01:00:06;7.70;99.90
42715;DHT22;28351;51.480;5.706;2024-01-25T01:02:35;7.70;99.90
42715;DHT22;28351;51.480;5.706;2024-01-25T01:05:01;7.70;99.90
42715;DHT22;28351;51.480;5.706;2024-01-25T01:07:27;7.70;99.90
42715;DHT22;28351;51.480;5.706;2024-01-25T01:09:52;7.70;99.90
42715;DHT22;28351;51.480;5.706;2024-01-25T01:12:18;7.70;99.90
42715;DHT22;28351;51.480;5.706;2024-01-25T01:14:44;7.60;99.90
42715;DHT22;28351;51.480;5.706;2024-01-25T01:17:09;7.60;99.90
42715;DHT22;28351;51.480;5.706;2024-01-25T01:19:35;7.50;99.90
42715;DHT22;28351;51.480;5.706;2024-01-25T01:22:00;7.50;99.90
42715;DHT22;28351;51.480;5.706;2024-01-25T01:24:26;7.50;99.90
42715;DHT22;28351;51.480;5.706;2024-01-25T01:26:51;7.50;99.90
42715;DHT22;28351;51.480;5.706;2024-01-25T01:29:17;7.40;99.90
42715;DHT22;28351;51.480;5.706;2024-01-25T01:31:43;7.40;99.90
42715;DHT22;28351;51.480;5.706;2024-01-25T01:34:09;7.40;99.90
42715;DHT22;28351;51.480;5.706;2024-01-25T01:36:35;7.30;99.90
42715;DHT22;28351;51.480;5.706;2024-01-25T01:39:00;7.40;99.90
42715;DHT22;28351;51.480;5.706;2024-01-25T01:41:26;7.30;99.90
42715;DHT22;28351;51.480;5.706;2024-01-25T01:43:54;7.30;99.90
42715;DHT22;28351;51.480;5.706;2024-01-25T01:48:48;7.20;99.90
42715;DHT22;28351;51.480;5.706;2024-01-25T01:51:14;7.10;99.90
42715;DHT22;28351;51.480;5.706;2024-01-25T01:53:39;7.10;99.90
42715;DHT22;28351;51.480;5.706;2024-01-25T01:56:05;7.10;99.90
42715;DHT22;28351;51.480;5.706;2024-01-25T01:58:31;7.10;99.90
42715;DHT22;28351;51.480;5.706;2024-01-25T02:00:58;7.10;99.90
42715;DHT22;28351;51.480;5.706;2024-01-25T02:03:24;7.20;99.90
42715;DHT22;28351;51.480;5.706;2024-01-25T02:05:50;7.10;99.90
42715;DHT22;28351;51.480;5.706;2024-01-25T02:08:16;7.10;99.90
42715;DHT22;28351;51.480;5.706;2024-01-25T02:10:41;7.00;99.90
42715;DHT22;28351;51.480;5.706;2024-01-25T02:13:08;6.90;99.90
42715;DHT22;28351;51.480;5.706;2024-01-25T02:15:34;6.80;99.90
42715;DHT22;28351;51.480;5.706;2024-01-25T02:17:59;6.70;99.90
42715;DHT22;28351;51.480;5.706;2024-01-25T02:20:25;6.70;99.90
42715;DHT22;28351;51.480;5.706;2024-01-25T02:22:50;6.60;99.90
42715;DHT22;28351;51.480;5.706;2024-01-25T02:25:16;6.50;99.90
42715;DHT22;28351;51.480;5.706;2024-01-25T02:27:42;6.60;99.90
42715;DHT22;28351;51.480;5.706;2024-01-25T02:30:07;6.50;99.90
42715;DHT22;28351;51.480;5.706;2024-01-25T02:32:33;6.40;99.90
42715;DHT22;28351;51.480;5.706;2024-01-25T02:34:59;6.30;99.90
42715;DHT22;28351;51.480;5.706;2024-01-25T02:37:25;6.40;99.90
42715;DHT22;28351;51.480;5.706;2024-01-25T02:39:51;6.60;99.90
42715;DHT22;28351;51.480;5.706;2024-01-25T02:42:16;6.50;99.90
42715;DHT22;28351;51.480;5.706;2024-01-25T02:44:42;6.40;99.90
42715;DHT22;28351;51.480;5.706;2024-01-25T02:47:08;6.30;99.90
42715;DHT22;28351;51.480;5.706;2024-01-25T02:49:36;6.30;99.90
42715;DHT22;28351;51.480;5.706;2024-01-25T02:52:04;6.30;99.90
42715;DHT22;28351;51.480;5.706;2024-01-25T02:54:30;6.30;99.90
42715;DHT22;28351;51.480;5.706;2024-01-25T02:56:55;6.30;99.90
42715;DHT22;28351;51.480;5.706;2024-01-25T02:59:21;6.30;99.90
42715;DHT22;28351;51.480;5.706;2024-01-25T03:01:48;6.20;99.90
42715;DHT22;28351;51.480;5.706;2024-01-25T03:04:14;6.30;99.90
42715;DHT22;28351;51.480;5.706;2024-01-25T03:06:41;6.30;99.90
42715;DHT22;28351;51.480;5.706;2024-01-25T03:09:07;6.30;99.90
42715;DHT22;28351;51.480;5.706;2024-01-25T03:11:33;6.30;99.90
42715;DHT22;28351;51.480;5.706;2024-01-25T03:13:58;6.30;99.90
42715;DHT22;28351;51.480;5.706;2024-01-25T03:16:24;6.30;99.90
42715;DHT22;28351;51.480;5.706;2024-01-25T03:18:50;6.20;99.90
42715;DHT22;28351;51.480;5.706;2024-01-25T03:21:15;6.20;99.90
42715;DHT22;28351;51.480;5.706;2024-01-25T03:23:41;6.20;99.90
42715;DHT22;28351;51.480;5.706;2024-01-25T03:26:07;6.20;99.90
42715;DHT22;28351;51.480;5.706;2024-01-25T03:28:35;6.20;99.90
42715;DHT22;28351;51.480;5.706;2024-01-25T03:31:01;6.10;99.90
42715;DHT22;28351;51.480;5.706;2024-01-25T03:33:27;6.10;99.90
42715;DHT22;28351;51.480;5.706;2024-01-25T03:35:53;6.10;99.90
42715;DHT22;28351;51.480;5.706;2024-01-25T03:38:19;6.20;99.90
42715;DHT22;28351;51.480;5.706;2024-01-25T03:40:44;6.20;99.90
42715;DHT22;28351;51.480;5.706;2024-01-25T03:43:10;6.10;99.90
42715;DHT22;28351;51.480;5.706;2024-01-25T03:45:35;6.00;99.90
42715;DHT22;28351;51.480;5.706;2024-01-25T03:48:01;5.80;99.90
42715;DHT22;28351;51.480;5.706;2024-01-25T03:50:27;5.90;99.90
42715;DHT22;28351;51.480;5.706;2024-01-25T03:52:53;5.70;99.90
42715;DHT22;28351;51.480;5.706;2024-01-25T03:55:18;5.70;99.90
42715;DHT22;28351;51.480;5.706;2024-01-25T03:57:44;5.70;99.90
42715;DHT22;28351;51.480;5.706;2024-01-25T04:00:10;5.70;99.90
42715;DHT22;28351;51.480;5.706;2024-01-25T04:02:36;5.70;99.90
42715;DHT22;28351;51.480;5.706;2024-01-25T04:05:02;5.60;99.90
42715;DHT22;28351;51.480;5.706;2024-01-25T04:07:27;5.70;99.90
42715;DHT22;28351;51.480;5.706;2024-01-25T04:09:53;5.70;99.90
42715;DHT22;28351;51.480;5.706;2024-01-25T04:12:18;5.60;99.90
42715;DHT22;28351;51.480;5.706;2024-01-25T04:14:44;5.60;99.90
42715;DHT22;28351;51.480;5.706;2024-01-25T04:17:10;5.60;99.90
42715;DHT22;28351;51.480;5.706;2024-01-25T04:19:36;5.60;99.90
42715;DHT22;28351;51.480;5.706;2024-01-25T04:22:02;5.40;99.90
42715;DHT22;28351;51.480;5.706;2024-01-25T04:24:27;5.40;99.90
42715;DHT22;28351;51.480;5.706;2024-01-25T04:26:53;5.30;99.90
42715;DHT22;28351;51.480;5.706;2024-01-25T04:29:18;5.20;99.90
42715;DHT22;28351;51.480;5.706;2024-01-25T04:31:45;5.20;99.90
42715;DHT22;28351;51.480;5.706;2024-01-25T04:34:14;5.10;99.90
42715;DHT22;28351;51.480;5.706;2024-01-25T04:36:41;4.90;99.90
42715;DHT22;28351;51.480;5.706;2024-01-25T04:39:06;4.90;99.90
42715;DHT22;28351;51.480;5.706;2024-01-25T04:41:32;4.90;99.90
42715;DHT22;28351;51.480;5.706;2024-01-25T04:43:57;4.80;99.90
42715;DHT22;28351;51.480;5.706;2024-01-25T04:46:23;4.90;99.90
42715;DHT22;28351;51.480;5.706;2024-01-25T04:48:48;5.00;99.90
42715;DHT22;28351;51.480;5.706;2024-01-25T04:51:15;5.10;99.90
42715;DHT22;28351;51.480;5.706;2024-01-25T04:53:42;5.10;99.90
42715;DHT22;28351;51.480;5.706;2024-01-25T04:56:07;5.00;99.90
42715;DHT22;28351;51.480;5.706;2024-01-25T04:58:33;5.00;99.90
42715;DHT22;28351;51.480;5.706;2024-01-25T05:00:58;4.90;99.90
42715;DHT22;28351;51.480;5.706;2024-01-25T05:03:25;4.90;99.90
42715;DHT22;28351;51.480;5.706;2024-01-25T05:05:50;4.90;99.90
42715;DHT22;28351;51.480;5.706;2024-01-25T05:08:16;4.90;99.90
42715;DHT22;28351;51.480;5.706;2024-01-25T05:10:43;5.00;99.90
42715;DHT22;28351;51.480;5.706;2024-01-25T05:13:14;5.00;99.90
42715;DHT22;28351;51.480;5.706;2024-01-25T05:15:40;5.00;99.90
42715;DHT22;28351;51.480;5.706;2024-01-25T05:18:05;4.90;99.90
42715;DHT22;28351;51.480;5.706;2024-01-25T05:20:31;4.90;99.90
42715;DHT22;28351;51.480;5.706;2024-01-25T05:23:02;5.00;99.90
42715;DHT22;28351;51.480;5.706;2024-01-25T05:25:29;4.90;99.90
42715;DHT22;28351;51.480;5.706;2024-01-25T05:27:55;4.90;99.90
42715;DHT22;28351;51.480;5.706;2024-01-25T05:30:21;4.90;99.90
42715;DHT22;28351;51.480;5.706;2024-01-25T05:32:46;4.80;99.90
42715;DHT22;28351;51.480;5.706;2024-01-25T05:35:13;4.70;99.90
42715;DHT22;28351;51.480;5.706;2024-01-25T05:37:39;4.60;99.90
42715;DHT22;28351;51.480;5.706;2024-01-25T05:40:05;4.60;99.90
42715;DHT22;28351;51.480;5.706;2024-01-25T05:42:31;4.50;99.90
42715;DHT22;28351;51.480;5.706;2024-01-25T05:44:57;4.40;99.90
42715;DHT22;28351;51.480;5.706;2024-01-25T05:47:23;4.40;99.90
42715;DHT22;28351;51.480;5.706;2024-01-25T05:49:49;4.40;99.90
42715;DHT22;28351;51.480;5.706;2024-01-25T05:52:15;4.40;99.90
42715;DHT22;28351;51.480;5.706;2024-01-25T05:54:41;4.40;99.90
42715;DHT22;28351;51.480;5.706;2024-01-25T05:57:07;4.40;99.90
42715;DHT22;28351;51.480;5.706;2024-01-25T05:59:32;4.40;99.90
42715;DHT22;28351;51.480;5.706;2024-01-25T06:01:57;4.30;99.90
42715;DHT22;28351;51.480;5.706;2024-01-25T06:04:23;4.30;99.90
42715;DHT22;28351;51.480;5.706;2024-01-25T06:06:50;4.30;99.90
42715;DHT22;28351;51.480;5.706;2024-01-25T06:09:15;4.30;99.90
42715;DHT22;28351;51.480;5.706;2024-01-25T06:11:41;4.30;99.90
42715;DHT22;28351;51.480;5.706;2024-01-25T06:14:08;4.20;99.90
42715;DHT22;28351;51.480;5.706;2024-01-25T06:16:33;4.10;99.90
42715;DHT22;28351;51.480;5.706;2024-01-25T06:18:59;4.00;99.90
42715;DHT22;28351;51.480;5.706;2024-01-25T06:21:28;4.00;99.90
42715;DHT22;28351;51.480;5.706;2024-01-25T06:23:54;3.90;99.90
42715;DHT22;28351;51.480;5.706;2024-01-25T06:26:19;3.80;99.90
42715;DHT22;28351;51.480;5.706;2024-01-25T06:28:45;3.80;99.90
42715;DHT22;28351;51.480;5.706;2024-01-25T06:31:10;3.70;99.90
42715;DHT22;28351;51.480;5.706;2024-01-25T06:33:37;3.70;99.90
42715;DHT22;28351;51.480;5.706;2024-01-25T06:36:04;3.60;99.90
42715;DHT22;28351;51.480;5.706;2024-01-25T06:38:30;3.60;99.90
42715;DHT22;28351;51.480;5.706;2024-01-25T06:40:58;3.50;99.90
42715;DHT22;28351;51.480;5.706;2024-01-25T06:43:24;3.50;99.90
42715;DHT22;28351;51.480;5.706;2024-01-25T06:45:49;3.40;99.90
42715;DHT22;28351;51.480;5.706;2024-01-25T06:48:15;3.30;99.90
42715;DHT22;28351;51.480;5.706;2024-01-25T06:50:42;3.30;99.90
42715;DHT22;28351;51.480;5.706;2024-01-25T06:53:09;3.30;99.90
42715;DHT22;28351;51.480;5.706;2024-01-25T06:55:34;3.30;99.90
42715;DHT22;28351;51.480;5.706;2024-01-25T06:58:00;3.30;99.90
42715;DHT22;28351;51.480;5.706;2024-01-25T07:00:25;3.30;99.90
42715;DHT22;28351;51.480;5.706;2024-01-25T07:02:51;3.30;99.90
42715;DHT22;28351;51.480;5.706;2024-01-25T07:05:16;3.20;99.90
42715;DHT22;28351;51.480;5.706;2024-01-25T07:07:42;3.20;99.90
42715;DHT22;28351;51.480;5.706;2024-01-25T07:10:08;3.10;99.90
42715;DHT22;28351;51.480;5.706;2024-01-25T07:12:33;3.10;99.90
42715;DHT22;28351;51.480;5.706;2024-01-25T07:14:59;3.20;99.90
42715;DHT22;28351;51.480;5.706;2024-01-25T07:17:25;3.20;99.90
42715;DHT22;28351;51.480;5.706;2024-01-25T07:19:51;3.20;99.90
42715;DHT22;28351;51.480;5.706;2024-01-25T07:22:16;3.20;99.90
42715;DHT22;28351;51.480;5.706;2024-01-25T07:24:44;3.20;99.90
42715;DHT22;28351;51.480;5.706;2024-01-25T07:27:09;3.10;99.90
42715;DHT22;28351;51.480;5.706;2024-01-25T07:29:36;3.10;99.90
42715;DHT22;28351;51.480;5.706;2024-01-25T07:32:01;3.10;99.90
42715;DHT22;28351;51.480;5.706;2024-01-25T07:34:27;3.20;99.90
42715;DHT22;28351;51.480;5.706;2024-01-25T07:36:53;3.20;99.90
42715;DHT22;28351;51.480;5.706;2024-01-25T07:39:21;3.30;99.90
42715;DHT22;28351;51.480;5.706;2024-01-25T07:41:47;3.30;99.90
42715;DHT22;28351;51.480;5.706;2024-01-25T07:44:13;3.40;99.90
42715;DHT22;28351;51.480;5.706;2024-01-25T07:46:38;3.60;99.90
42715;DHT22;28351;51.480;5.706;2024-01-25T07:49:04;3.60;99.90
42715;DHT22;28351;51.480;5.706;2024-01-25T07:51:30;3.70;99.90
42715;DHT22;28351;51.480;5.706;2024-01-25T07:53:55;3.80;99.90
42715;DHT22;28351;51.480;5.706;2024-01-25T07:56:21;3.80;99.90
42715;DHT22;28351;51.480;5.706;2024-01-25T07:58:49;3.90;99.90
42715;DHT22;28351;51.480;5.706;2024-01-25T08:01:19;4.00;99.90
42715;DHT22;28351;51.480;5.706;2024-01-25T08:03:45;4.10;99.90
42715;DHT22;28351;51.480;5.706;2024-01-25T08:06:10;4.20;99.90
42715;DHT22;28351;51.480;5.706;2024-01-25T08:08:36;4.20;99.90
42715;DHT22;28351;51.480;5.706;2024-01-25T08:11:02;4.30;99.90
42715;DHT22;28351;51.480;5.706;2024-01-25T08:13:29;4.40;99.90
42715;DHT22;28351;51.480;5.706;2024-01-25T08:15:56;4.40;99.90
42715;DHT22;28351;51.480;5.706;2024-01-25T08:18:22;4.50;99.90
42715;DHT22;28351;51.480;5.706;2024-01-25T08:20:55;4.50;99.90
42715;DHT22;28351;51.480;5.706;2024-01-25T08:23:21;4.60;99.90
42715;DHT22;28351;51.480;5.706;2024-01-25T08:25:47;4.50;99.90
42715;DHT22;28351;51.480;5.706;2024-01-25T08:28:13;4.60;99.90
42715;DHT22;28351;51.480;5.706;2024-01-25T08:30:38;4.60;99.90
42715;DHT22;28351;51.480;5.706;2024-01-25T08:33:04;4.60;99.90
42715;DHT22;28351;51.480;5.706;2024-01-25T08:35:29;4.60;99.90
42715;DHT22;28351;51.480;5.706;2024-01-25T08:37:58;4.70;99.90
42715;DHT22;28351;51.480;5.706;2024-01-25T08:40:23;4.80;99.90
42715;DHT22;28351;51.480;5.706;2024-01-25T08:42:49;4.90;99.90
42715;DHT22;28351;51.480;5.706;2024-01-25T08:45:14;4.90;99.90
42715;DHT22;28351;51.480;5.706;2024-01-25T08:47:40;4.90;99.90
42715;DHT22;28351;51.480;5.706;2024-01-25T08:50:05;5.00;99.90
42715;DHT22;28351;51.480;5.706;2024-01-25T08:52:37;5.10;99.90
42715;DHT22;28351;51.480;5.706;2024-01-25T08:55:04;5.20;99.90
42715;DHT22;28351;51.480;5.706;2024-01-25T08:57:30;5.30;99.90
42715;DHT22;28351;51.480;5.706;2024-01-25T08:59:56;5.30;99.90
42715;DHT22;28351;51.480;5.706;2024-01-25T09:02:24;5.40;99.90
42715;DHT22;28351;51.480;5.706;2024-01-25T09:04:52;5.40;99.90
42715;DHT22;28351;51.480;5.706;2024-01-25T09:07:21;5.40;99.90
42715;DHT22;28351;51.480;5.706;2024-01-25T09:09:47;5.50;99.90
42715;DHT22;28351;51.480;5.706;2024-01-25T09:12:13;5.50;99.90
42715;DHT22;28351;51.480;5.706;2024-01-25T09:14:39;5.50;99.90
42715;DHT22;28351;51.480;5.706;2024-01-25T09:17:05;5.60;99.90
42715;DHT22;28351;51.480;5.706;2024-01-25T09:19:30;5.60;99.90
42715;DHT22;28351;51.480;5.706;2024-01-25T09:21:56;5.60;99.90
42715;DHT22;28351;51.480;5.706;2024-01-25T09:24:26;5.70;99.90
42715;DHT22;28351;51.480;5.706;2024-01-25T09:26:52;5.70;99.90
42715;DHT22;28351;51.480;5.706;2024-01-25T09:29:17;5.70;99.90
42715;DHT22;28351;51.480;5.706;2024-01-25T09:31:43;5.80;99.90
42715;DHT22;28351;51.480;5.706;2024-01-25T09:34:08;5.80;99.90
42715;DHT22;28351;51.480;5.706;2024-01-25T09:36:34;5.80;99.90
42715;DHT22;28351;51.480;5.706;2024-01-25T09:38:59;6.00;99.90
42715;DHT22;28351;51.480;5.706;2024-01-25T09:41:25;6.00;99.90
42715;DHT22;28351;51.480;5.706;2024-01-25T09:43:51;6.20;99.90
42715;DHT22;28351;51.480;5.706;2024-01-25T09:46:17;6.20;99.90
42715;DHT22;28351;51.480;5.706;2024-01-25T09:48:43;6.30;99.90
42715;DHT22;28351;51.480;5.706;2024-01-25T09:51:11;6.30;99.90
42715;DHT22;28351;51.480;5.706;2024-01-25T09:53:37;6.40;99.90
42715;DHT22;28351;51.480;5.706;2024-01-25T09:56:06;6.40;99.90
42715;DHT22;28351;51.480;5.706;2024-01-25T09:58:40;6.60;99.90
42715;DHT22;28351;51.480;5.706;2024-01-25T10:01:09;6.70;99.90
42715;DHT22;28351;51.480;5.706;2024-01-25T10:03:36;6.80;99.90
42715;DHT22;28351;51.480;5.706;2024-01-25T10:06:01;6.90;99.90
42715;DHT22;28351;51.480;5.706;2024-01-25T10:08:29;7.00;99.90
42715;DHT22;28351;51.480;5.706;2024-01-25T10:10:55;7.00;99.90
42715;DHT22;28351;51.480;5.706;2024-01-25T10:13:20;7.00;99.90
42715;DHT22;28351;51.480;5.706;2024-01-25T10:15:46;7.00;99.90
42715;DHT22;28351;51.480;5.706;2024-01-25T10:18:13;7.00;99.90
42715;DHT22;28351;51.480;5.706;2024-01-25T10:20:47;6.90;99.90
42715;DHT22;28351;51.480;5.706;2024-01-25T10:23:12;7.00;99.90
42715;DHT22;28351;51.480;5.706;2024-01-25T10:25:38;7.00;99.90
42715;DHT22;28351;51.480;5.706;2024-01-25T10:28:04;7.10;99.90
42715;DHT22;28351;51.480;5.706;2024-01-25T10:30:33;7.20;99.90
42715;DHT22;28351;51.480;5.706;2024-01-25T10:32:59;7.30;99.90
42715;DHT22;28351;51.480;5.706;2024-01-25T10:35:25;7.50;99.90
42715;DHT22;28351;51.480;5.706;2024-01-25T10:37:52;7.40;99.90
42715;DHT22;28351;51.480;5.706;2024-01-25T10:40:18;7.50;99.90
42715;DHT22;28351;51.480;5.706;2024-01-25T10:42:45;7.40;99.90
42715;DHT22;28351;51.480;5.706;2024-01-25T10:45:10;7.60;99.90
42715;DHT22;28351;51.480;5.706;2024-01-25T10:47:37;7.70;99.90
42715;DHT22;28351;51.480;5.706;2024-01-25T10:50:07;7.80;99.90
42715;DHT22;28351;51.480;5.706;2024-01-25T10:52:34;7.80;99.90
42715;DHT22;28351;51.480;5.706;2024-01-25T10:55:01;8.00;99.90
42715;DHT22;28351;51.480;5.706;2024-01-25T10:57:39;8.10;99.90
42715;DHT22;28351;51.480;5.706;2024-01-25T11:00:09;8.10;99.90
42715;DHT22;28351;51.480;5.706;2024-01-25T11:02:35;8.20;99.90
42715;DHT22;28351;51.480;5.706;2024-01-25T11:05:00;8.30;99.90
42715;DHT22;28351;51.480;5.706;2024-01-25T11:07:27;8.20;99.90
42715;DHT22;28351;51.480;5.706;2024-01-25T11:09:54;8.40;99.90
42715;DHT22;28351;51.480;5.706;2024-01-25T11:12:20;8.30;99.90
42715;DHT22;28351;51.480;5.706;2024-01-25T11:14:53;8.40;99.90
42715;DHT22;28351;51.480;5.706;2024-01-25T11:17:19;8.40;99.90
42715;DHT22;28351;51.480;5.706;2024-01-25T11:19:45;8.40;99.90
42715;DHT22;28351;51.480;5.706;2024-01-25T11:22:11;8.50;99.90
42715;DHT22;28351;51.480;5.706;2024-01-25T11:24:42;8.50;99.90
42715;DHT22;28351;51.480;5.706;2024-01-25T11:27:08;8.60;99.90
42715;DHT22;28351;51.480;5.706;2024-01-25T11:29:34;8.60;99.90
42715;DHT22;28351;51.480;5.706;2024-01-25T11:32:00;8.60;99.90
42715;DHT22;28351;51.480;5.706;2024-01-25T11:34:25;8.60;99.90
42715;DHT22;28351;51.480;5.706;2024-01-25T11:36:52;8.60;99.90
42715;DHT22;28351;51.480;5.706;2024-01-25T11:39:18;8.60;99.90
42715;DHT22;28351;51.480;5.706;2024-01-25T11:41:44;8.70;99.90
42715;DHT22;28351;51.480;5.706;2024-01-25T11:44:10;8.70;99.90
42715;DHT22;28351;51.480;5.706;2024-01-25T11:46:36;8.80;99.90
42715;DHT22;28351;51.480;5.706;2024-01-25T11:49:01;8.90;99.90
42715;DHT22;28351;51.480;5.706;2024-01-25T11:51:27;9.00;99.90
42715;DHT22;28351;51.480;5.706;2024-01-25T11:53:53;8.90;99.90
42715;DHT22;28351;51.480;5.706;2024-01-25T11:56:25;9.00;99.90
42715;DHT22;28351;51.480;5.706;2024-01-25T11:58:51;9.00;99.90
42715;DHT22;28351;51.480;5.706;2024-01-25T12:01:18;8.90;99.90
42715;DHT22;28351;51.480;5.706;2024-01-25T12:03:44;8.90;99.90
42715;DHT22;28351;51.480;5.706;2024-01-25T12:06:10;9.00;99.90
42715;DHT22;28351;51.480;5.706;2024-01-25T12:08:37;9.00;99.90
42715;DHT22;28351;51.480;5.706;2024-01-25T12:11:06;8.90;99.90
42715;DHT22;28351;51.480;5.706;2024-01-25T12:13:32;8.80;99.90
42715;DHT22;28351;51.480;5.706;2024-01-25T12:15:57;8.70;99.90
42715;DHT22;28351;51.480;5.706;2024-01-25T12:18:23;8.80;99.90
42715;DHT22;28351;51.480;5.706;2024-01-25T12:20:50;8.70;99.90
42715;DHT22;28351;51.480;5.706;2024-01-25T12:23:15;8.70;99.90
42715;DHT22;28351;51.480;5.706;2024-01-25T12:25:41;8.60;99.90
42715;DHT22;28351;51.480;5.706;2024-01-25T12:28:06;8.70;99.90
42715;DHT22;28351;51.480;5.706;2024-01-25T12:30:32;8.80;99.90
42715;DHT22;28351;51.480;5.706;2024-01-25T12:32:59;8.80;99.90
42715;DHT22;28351;51.480;5.706;2024-01-25T12:35:24;8.80;99.90
42715;DHT22;28351;51.480;5.706;2024-01-25T12:37:50;8.80;99.90
42715;DHT22;28351;51.480;5.706;2024-01-25T12:40:15;8.80;99.90
42715;DHT22;28351;51.480;5.706;2024-01-25T12:42:41;9.00;99.90
42715;DHT22;28351;51.480;5.706;2024-01-25T12:45:06;9.00;99.90
42715;DHT22;28351;51.480;5.706;2024-01-25T12:47:32;9.00;99.90
42715;DHT22;28351;51.480;5.706;2024-01-25T12:49:58;9.10;99.90
42715;DHT22;28351;51.480;5.706;2024-01-25T12:52:23;9.20;99.90
42715;DHT22;28351;51.480;5.706;2024-01-25T12:54:49;9.20;99.90
42715;DHT22;28351;51.480;5.706;2024-01-25T12:57:14;9.20;99.90
42715;DHT22;28351;51.480;5.706;2024-01-25T12:59:40;9.30;99.90
42715;DHT22;28351;51.480;5.706;2024-01-25T13:02:05;9.30;99.90
42715;DHT22;28351;51.480;5.706;2024-01-25T13:04:32;9.30;99.90
42715;DHT22;28351;51.480;5.706;2024-01-25T13:06:57;9.40;99.90
42715;DHT22;28351;51.480;5.706;2024-01-25T13:09:26;9.40;99.90
42715;DHT22;28351;51.480;5.706;2024-01-25T13:11:51;9.50;99.90
42715;DHT22;28351;51.480;5.706;2024-01-25T13:14:18;9.50;99.90
42715;DHT22;28351;51.480;5.706;2024-01-25T13:16:44;9.50;99.90
42715;DHT22;28351;51.480;5.706;2024-01-25T13:19:09;9.40;99.90
42715;DHT22;28351;51.480;5.706;2024-01-25T13:21:37;9.30;99.90
42715;DHT22;28351;51.480;5.706;2024-01-25T13:24:02;9.10;99.90
42715;DHT22;28351;51.480;5.706;2024-01-25T13:26:31;9.00;99.90
42715;DHT22;28351;51.480;5.706;2024-01-25T13:29:04;8.90;99.90
42715;DHT22;28351;51.480;5.706;2024-01-25T13:31:29;8.80;99.90
42715;DHT22;28351;51.480;5.706;2024-01-25T13:33:55;8.80;99.90
42715;DHT22;28351;51.480;5.706;2024-01-25T13:36:20;8.70;99.90
42715;DHT22;28351;51.480;5.706;2024-01-25T13:38:46;8.70;99.90
42715;DHT22;28351;51.480;5.706;2024-01-25T13:41:11;8.60;99.90
42715;DHT22;28351;51.480;5.706;2024-01-25T13:43:37;8.70;99.90
42715;DHT22;28351;51.480;5.706;2024-01-25T13:46:02;8.70;99.90
42715;DHT22;28351;51.480;5.706;2024-01-25T13:48:28;8.70;99.90
42715;DHT22;28351;51.480;5.706;2024-01-25T13:50:53;8.70;99.90
42715;DHT22;28351;51.480;5.706;2024-01-25T13:53:19;8.70;99.90
42715;DHT22;28351;51.480;5.706;2024-01-25T13:55:44;8.70;99.90
42715;DHT22;28351;51.480;5.706;2024-01-25T13:58:13;8.70;99.90
42715;DHT22;28351;51.480;5.706;2024-01-25T14:00:39;8.70;99.90
42715;DHT22;28351;51.480;5.706;2024-01-25T14:03:04;8.70;99.90
42715;DHT22;28351;51.480;5.706;2024-01-25T14:05:30;8.70;99.90
42715;DHT22;28351;51.480;5.706;2024-01-25T14:07:57;8.70;99.90
42715;DHT22;28351;51.480;5.706;2024-01-25T14:10:22;8.70;99.90
42715;DHT22;28351;51.480;5.706;2024-01-25T14:12:48;8.70;99.90
42715;DHT22;28351;51.480;5.706;2024-01-25T14:15:15;8.60;99.90
42715;DHT22;28351;51.480;5.706;2024-01-25T14:17:40;8.70;99.90
42715;DHT22;28351;51.480;5.706;2024-01-25T14:20:06;8.60;99.90
42715;DHT22;28351;51.480;5.706;2024-01-25T14:22:35;8.70;99.90
42715;DHT22;28351;51.480;5.706;2024-01-25T14:25:00;8.70;99.90
42715;DHT22;28351;51.480;5.706;2024-01-25T14:27:26;8.60;99.90
42715;DHT22;28351;51.480;5.706;2024-01-25T14:29:52;8.70;99.90
42715;DHT22;28351;51.480;5.706;2024-01-25T14:32:17;8.70;99.90
42715;DHT22;28351;51.480;5.706;2024-01-25T14:34:45;8.70;99.90
42715;DHT22;28351;51.480;5.706;2024-01-25T14:37:10;8.70;99.90
42715;DHT22;28351;51.480;5.706;2024-01-25T14:39:36;8.80;99.90
42715;DHT22;28351;51.480;5.706;2024-01-25T14:42:03;8.70;99.90
42715;DHT22;28351;51.480;5.706;2024-01-25T14:44:28;8.70;99.90
42715;DHT22;28351;51.480;5.706;2024-01-25T14:46:54;8.80;99.90
42715;DHT22;28351;51.480;5.706;2024-01-25T14:49:19;8.80;99.90
42715;DHT22;28351;51.480;5.706;2024-01-25T14:51:45;8.70;99.90
42715;DHT22;28351;51.480;5.706;2024-01-25T14:54:10;8.70;99.90
42715;DHT22;28351;51.480;5.706;2024-01-25T14:56:39;8.70;99.90
42715;DHT22;28351;51.480;5.706;2024-01-25T14:59:04;8.60;99.90
42715;DHT22;28351;51.480;5.706;2024-01-25T15:01:30;8.60;99.90
42715;DHT22;28351;51.480;5.706;2024-01-25T15:03:56;8.50;99.90
42715;DHT22;28351;51.480;5.706;2024-01-25T15:06:22;8.40;99.90
42715;DHT22;28351;51.480;5.706;2024-01-25T15:08:48;8.40;99.90
42715;DHT22;28351;51.480;5.706;2024-01-25T15:11:13;8.40;99.90
42715;DHT22;28351;51.480;5.706;2024-01-25T15:13:39;8.40;99.90
42715;DHT22;28351;51.480;5.706;2024-01-25T15:16:05;8.30;99.90
42715;DHT22;28351;51.480;5.706;2024-01-25T15:18:30;8.30;99.90
42715;DHT22;28351;51.480;5.706;2024-01-25T15:21:14;8.30;99.90
42715;DHT22;28351;51.480;5.706;2024-01-25T15:23:40;8.30;99.90
42715;DHT22;28351;51.480;5.706;2024-01-25T15:26:05;8.30;99.90
42715;DHT22;28351;51.480;5.706;2024-01-25T15:28:31;8.30;99.90
42715;DHT22;28351;51.480;5.706;2024-01-25T15:30:56;8.20;99.90
42715;DHT22;28351;51.480;5.706;2024-01-25T15:33:24;8.20;99.90
42715;DHT22;28351;51.480;5.706;2024-01-25T15:35:52;8.20;99.90
42715;DHT22;28351;51.480;5.706;2024-01-25T15:38:18;8.30;99.90
42715;DHT22;28351;51.480;5.706;2024-01-25T15:40:45;8.20;99.90